Surface/Precipitation History
11/23/2014 14:27  to  11/24/2014 14:27
Change End Date:
Date/Time
(MST)
Sf
Temp Chem Water Layer Surface Precipitation
Sf Sub Frz Factor Pct Depth IcePct Cond Salin Type Intens Accum Rate
11/24/2014 14:15 Wet 34.2F 32F 31F 95 2% 0.00 in 0% 6 mhos 623 None None 0.32 in 0.0 iph
11/24/2014 14:14 Wet 34.2F 32F 31F 95 2% 0.00 in 0% 6 mhos 642 None None 0.32 in 0.0 iph
11/24/2014 14:04 Wet 34.0F 32F 31F 95 3% 0.00 in 0% 7 mhos 683 None None 0.33 in 0.0 iph
11/24/2014 13:54 Wet 34.3F 32F 31F 95 3% 0.00 in 0% 7 mhos 751 None None 0.33 in 0.0 iph
11/24/2014 13:45 Wet 34.3F 32F 31F 95 3% 0.00 in 0% 9 mhos 894 None None 0.35 in 0.0 iph
11/24/2014 13:44 Wet 34.3F 32F 31F 95 3% 0.00 in 0% 9 mhos 910 None None 0.35 in 0.0 iph
11/24/2014 13:34 Wet 34.7F 32F 31F 95 3% 0.00 in 0% 8 mhos 880 None None 0.35 in 0.0 iph
11/24/2014 13:24 Wet 35.2F 32F 31F 95 3% 0.00 in 0% 8 mhos 867 None None 0.36 in 0.0 iph
11/24/2014 13:15 Wet 35.1F 32F 31F 95 4% 0.00 in 0% 9 mhos 920 None None 0.36 in 0.0 iph
11/24/2014 13:14 Wet 35.2F 32F 31F 95 3% 0.00 in 0% 9 mhos 893 None None 0.36 in 0.0 iph
11/24/2014 13:03 Wet 35.4F 32F 31F 95 3% 0.00 in 0% 9 mhos 882 None None 0.37 in 0.0 iph
11/24/2014 12:53 Wet 35.4F 32F 31F 95 3% 0.00 in 0% 8 mhos 825 None None 0.37 in 0.0 iph
11/24/2014 12:45 Wet 35.2F 32F 31F 95 3% 0.00 in 0% 6 mhos 668 None None 0.37 in 0.0 iph
11/24/2014 12:43 Wet 35.4F 32F 31F 95 2% 0.00 in 0% 6 mhos 632 None None 0.37 in 0.0 iph
11/24/2014 12:33 Wet 35.8F 32F 31F 95 3% 0.00 in 0% 7 mhos 719 None None 0.38 in 0.0 iph
Date/Time
(MST)
Sf
Temp Chem Water Layer Surface Precipitation
Sf Sub Frz Factor Pct Depth IcePct Cond Salin Type Intens Accum Rate
11/24/2014 12:23 Wet 35.6F 32F 31F 95 4% 0.00 in 0% 10 mhos 1011 None None 0.38 in 0.0 iph
11/24/2014 12:15 Wet 35.8F 32F 31F 95 4% 0.00 in 0% 11 mhos 1110 None None 0.39 in 0.0 iph
11/24/2014 12:13 Wet 35.6F 32F 31F 95 4% 0.00 in 0% 11 mhos 1163 None None 0.39 in 0.0 iph
11/24/2014 12:03 Wet 35.8F 32F 31F 95 4% 0.00 in 0% 11 mhos 1085 None None 0.39 in 0.0 iph
11/24/2014 11:53 Wet 35.6F 32F 31F 95 3% 0.00 in 0% 8 mhos 800 None None 0.39 in 0.0 iph
11/24/2014 11:46 Wet 35.4F 32F 31F 95 3% 0.00 in 0% 8 mhos 824 None None 0.39 in 0.0 iph
11/24/2014 11:43 Wet 35.2F 32F 31F 95 3% 0.00 in 0% 7 mhos 738 None None 0.40 in 0.0 iph
11/24/2014 11:33 Wet 34.7F 32F 31F 95 4% 0.00 in 0% 10 mhos 994 None None 0.40 in 0.0 iph
11/24/2014 11:23 Wet 34.2F 32F 31F 95 5% 0.00 in 0% 12 mhos 1243 None None 0.41 in 0.0 iph
11/24/2014 11:15 Wet 34.3F 32F 31F 95 4% 0.00 in 0% 9 mhos 951 None None 0.41 in 0.0 iph
11/24/2014 11:13 Wet 34.0F 32F 31F 95 4% 0.00 in 0% 11 mhos 1111 None None 0.41 in 0.0 iph
11/24/2014 11:03 Wet 33.4F 32F 31F 95 3% 0.00 in 0% 7 mhos 732 None None 0.41 in 0.0 iph
11/24/2014 10:53 Wet 33.3F 32F 31F 95 3% 0.00 in 0% 8 mhos 832 None None 0.41 in 0.0 iph
11/24/2014 10:46 Wet 33.4F 32F 31F 95 3% 0.00 in 0% 8 mhos 842 None None 0.41 in 0.0 iph
11/24/2014 10:43 Wet 33.3F 32F 31F 95 3% 0.00 in 0% 7 mhos 793 None None 0.41 in 0.0 iph
Date/Time
(MST)
Sf
Temp Chem Water Layer Surface Precipitation
Sf Sub Frz Factor Pct Depth IcePct Cond Salin Type Intens Accum Rate
11/24/2014 10:33 Wet 32.7F 32F 31F 95 4% 0.00 in 0% 10 mhos 1071 None None 0.41 in 0.0 iph
11/24/2014 10:23 Chemically Wet 32.0F 32F 31F 95 4% 0.00 in 0% 9 mhos 952 None None 0.41 in 0.0 iph
11/24/2014 10:15 Chemically Wet 31.8F 32F 31F 95 4% 0.00 in 0% 9 mhos 971 None None 0.41 in 0.0 iph
11/24/2014 10:13 Chemically Wet 31.5F 32F 31F 95 4% 0.00 in 0% 9 mhos 968 None None 0.41 in 0.0 iph
11/24/2014 10:03 Chemically Wet 30.6F 32F 31F 95 4% - 33% 9 mhos 953 None None 0.41 in 0.0 iph
11/24/2014 09:53 Chemically Wet 29.8F 32F 31F 95 4% - 46% 10 mhos 1090 None None 0.41 in 0.0 iph
11/24/2014 09:45 Chemically Wet 29.8F 32F 31F 95 4% - 51% 10 mhos 1079 None None 0.41 in 0.0 iph
11/24/2014 09:43 Chemically Wet 29.8F 32F 31F 95 4% - 47% 10 mhos 1070 None None 0.41 in 0.0 iph
11/24/2014 09:32 Chemically Wet 30.2F 32F 31F 95 4% - 40% 9 mhos 1032 None None 0.42 in 0.0 iph
11/24/2014 09:22 Chemically Wet 30.4F 32F 31F 95 3% - 42% 8 mhos 905 None None 0.42 in 0.0 iph
11/24/2014 09:15 Chemically Wet 30.2F 32F 31F 95 3% - 48% 8 mhos 906 None None 0.42 in 0.0 iph
11/24/2014 09:12 Chemically Wet 30.0F 32F 31F 95 4% - 44% 9 mhos 1051 None None 0.42 in 0.0 iph
11/24/2014 09:02 Chemically Wet 29.8F 32F 31F 95 4% - 45% 10 mhos 1129 None None 0.42 in 0.0 iph
11/24/2014 08:52 Chemically Wet 28.9F 32F 31F 95 4% - 61% 10 mhos 1149 None None 0.42 in 0.0 iph
11/24/2014 08:45 Chemically Wet 28.4F 32F 31F 95 5% - 67% 10 mhos 1183 None None 0.42 in 0.0 iph
Date/Time
(MST)
Sf
Temp Chem Water Layer Surface Precipitation
Sf Sub Frz Factor Pct Depth IcePct Cond Salin Type Intens Accum Rate
11/24/2014 08:42 Chemically Wet 28.0F 32F 31F 95 4% - 70% 10 mhos 1167 None None 0.42 in 0.0 iph
11/24/2014 08:32 Chemically Wet 28.0F 32F 31F 95 4% - 74% 9 mhos 1037 None None 0.42 in 0.0 iph
11/24/2014 08:22 Chemically Wet 27.7F 32F 31F 95 4% - 73% 10 mhos 1136 None None 0.42 in 0.0 iph
11/24/2014 08:15 Chemically Wet 27.9F 32F 31F 95 4% - 72% 10 mhos 1138 None None 0.42 in 0.0 iph
11/24/2014 08:12 Chemically Wet 28.0F 32F 31F 95 5% - 70% 10 mhos 1188 None None 0.42 in 0.0 iph
11/24/2014 08:02 Chemically Wet 28.0F 32F 31F 95 4% - 71% 10 mhos 1140 None None 0.42 in 0.0 iph
11/24/2014 07:52 Chemically Wet 28.0F 32F 31F 95 5% - 69% 11 mhos 1227 None None 0.42 in 0.0 iph
11/24/2014 07:45 Chemically Wet 27.9F 32F 31F 95 4% - 72% 10 mhos 1139 None None 0.42 in 0.0 iph
11/24/2014 07:42 Chemically Wet 28.0F 32F 31F 95 4% - 72% 9 mhos 1086 None None 0.42 in 0.0 iph
11/24/2014 07:32 Chemically Wet 27.9F 32F 31F 95 4% - 72% 10 mhos 1145 None None 0.42 in 0.0 iph
11/24/2014 07:22 Chemically Wet 28.6F 32F 31F 95 4% - 72% 9 mhos 982 None None 0.42 in 0.0 iph
11/24/2014 07:15 Chemically Wet 28.0F 32F 30F 95 6% - 63% 13 mhos 1452 None None 0.42 in 0.0 iph
11/24/2014 07:12 Chemically Wet 28.0F 32F 31F 95 5% - 65% 12 mhos 1393 None None 0.42 in 0.0 iph
11/24/2014 07:02 Chemically Wet 28.2F 32F 31F 95 5% - 66% 11 mhos 1274 None None 0.42 in 0.0 iph
11/24/2014 06:52 Chemically Wet 28.4F 32F 30F 95 5% - 61% 12 mhos 1423 None None 0.42 in 0.0 iph
Date/Time
(MST)
Sf
Temp Chem Water Layer Surface Precipitation
Sf Sub Frz Factor Pct Depth IcePct Cond Salin Type Intens Accum Rate
11/24/2014 06:45 Chemically Wet 28.2F 32F 31F 95 4% - 71% 9 mhos 1087 None None 0.42 in 0.0 iph
11/24/2014 06:42 Chemically Wet 28.2F 32F 31F 95 5% - 67% 11 mhos 1252 None None 0.42 in 0.0 iph
11/24/2014 06:32 Chemically Wet 28.0F 32F 30F 95 6% - 61% 13 mhos 1525 None None 0.42 in 0.0 iph
11/24/2014 06:22 Chemically Wet 28.0F 32F 30F 95 7% - 52% 16 mhos 1877 None None 0.42 in 0.0 iph
11/24/2014 06:15 Chemically Wet 28.2F 32F 31F 95 5% - 64% 12 mhos 1354 None None 0.42 in 0.0 iph
11/24/2014 06:12 Chemically Wet 28.0F 32F 31F 95 5% - 65% 12 mhos 1379 None None 0.42 in 0.0 iph
11/24/2014 06:02 Chemically Wet 28.0F 32F 30F 95 7% - 55% 15 mhos 1792 None None 0.42 in 0.0 iph
11/24/2014 06:00 Chemically Wet 28.0F 32F 30F 95 7% - 55% 15 mhos 1779 None None 0.42 in 0.0 iph
11/24/2014 05:51 Chemically Wet 28.2F 32F 30F 95 6% - 58% 14 mhos 1570 None None 0.42 in 0.0 iph
11/24/2014 05:45 Chemically Wet 28.2F 32F 30F 95 6% - 60% 13 mhos 1500 None None 0.42 in 0.0 iph
11/24/2014 05:41 Chemically Wet 28.0F 32F 31F 95 5% - 70% 10 mhos 1177 None None 0.42 in 0.0 iph
11/24/2014 05:31 Chemically Wet 28.4F 32F 31F 95 3% - 75% 8 mhos 900 None None 0.42 in 0.0 iph
11/24/2014 05:21 Chemically Wet 28.4F 32F 31F 95 5% - 67% 11 mhos 1208 None None 0.42 in 0.0 iph
11/24/2014 05:15 Chemically Wet 28.4F 32F 29F 95 10% - 30% 22 mhos 2552 None None 0.42 in 0.0 iph
11/24/2014 05:11 Chemically Wet 28.4F 32F 29F 95 9% - 37% 19 mhos 2266 None None 0.42 in 0.0 iph
Date/Time
(MST)
Sf
Temp Chem Water Layer Surface Precipitation
Sf Sub Frz Factor Pct Depth IcePct Cond Salin Type Intens Accum Rate
11/24/2014 05:01 Chemically Wet 28.6F 32F 30F 95 6% - 58% 13 mhos 1437 None None 0.42 in 0.0 iph
11/24/2014 04:51 Chemically Wet 28.4F 32F 30F 95 6% - 59% 13 mhos 1491 None None 0.42 in 0.0 iph
11/24/2014 04:45 Chemically Wet 28.6F 32F 30F 95 6% - 53% 14 mhos 1627 None None 0.42 in 0.0 iph
11/24/2014 04:41 Chemically Wet 28.2F 32F 30F 95 6% - 58% 14 mhos 1571 None None 0.42 in 0.0 iph
11/24/2014 04:31 Chemically Wet 28.0F 32F 30F 95 6% - 60% 14 mhos 1585 None None 0.42 in 0.0 iph
11/24/2014 04:21 Chemically Wet 28.0F 32F 30F 95 7% - 52% 16 mhos 1898 None None 0.42 in 0.0 iph
11/24/2014 04:15 Chemically Wet 28.2F 32F 30F 95 6% - 56% 14 mhos 1670 None None 0.42 in 0.0 iph
11/24/2014 04:11 Chemically Wet 28.0F 32F 28F 95 13% - 12% 29 mhos 3454 None None 0.42 in 0.0 iph
11/24/2014 04:01 Chemically Wet 28.0F 32F 31F 95 5% - 69% 10 mhos 1208 None None 0.42 in 0.0 iph
11/24/2014 03:51 Chemically Wet 28.2F 32F 30F 95 6% - 56% 14 mhos 1662 None None 0.42 in 0.0 iph
11/24/2014 03:45 Chemically Wet 27.7F 32F 29F 95 10% - 37% 23 mhos 2697 None None 0.42 in 0.0 iph
11/24/2014 03:41 Chemically Wet 27.9F 32F 29F 95 10% - 35% 23 mhos 2669 None None 0.42 in 0.0 iph
11/24/2014 03:31 Chemically Wet 28.2F 32F 28F 95 13% 0.00 in 0% 29 mhos 3475 None None 0.42 in 0.0 iph
11/24/2014 03:21 Chemically Wet 28.6F 32F 28F 95 14% 0.00 in 0% 31 mhos 3769 None None 0.42 in 0.0 iph
11/24/2014 03:15 Chemically Wet 28.6F 32F 28F 95 14% 0.00 in 0% 31 mhos 3729 None None 0.42 in 0.0 iph
Date/Time
(MST)
Sf
Temp Chem Water Layer Surface Precipitation
Sf Sub Frz Factor Pct Depth IcePct Cond Salin Type Intens Accum Rate
11/24/2014 03:11 Chemically Wet 28.6F 32F 28F 95 13% 0.00 in 0% 28 mhos 3291 None None 0.42 in 0.0 iph
11/24/2014 03:01 Chemically Wet 29.1F 32F 31F 95 5% - 57% 11 mhos 1216 None None 0.42 in 0.0 iph
11/24/2014 02:51 Chemically Wet 29.1F 32F 30F 95 6% - 41% 15 mhos 1667 None None 0.42 in 0.0 iph
11/24/2014 02:45 Chemically Wet 29.1F 32F 30F 95 6% - 43% 14 mhos 1598 None None 0.42 in 0.0 iph
11/24/2014 02:41 Chemically Wet 29.3F 32F 31F 95 5% - 48% 12 mhos 1379 None None 0.42 in 0.0 iph
11/24/2014 02:31 Chemically Wet 29.3F 32F 31F 95 4% - 65% 8 mhos 942 None None 0.42 in 0.0 iph
11/24/2014 02:20 Chemically Wet 29.3F 32F 31F 95 5% - 54% 11 mhos 1218 None None 0.42 in 0.0 iph
11/24/2014 02:15 Chemically Wet 29.3F 32F 31F 95 4% - 58% 10 mhos 1117 None None 0.42 in 0.0 iph
11/24/2014 02:10 Chemically Wet 29.5F 32F 31F 95 4% - 62% 9 mhos 956 None None 0.42 in 0.0 iph
11/24/2014 02:00 Chemically Wet 29.5F 32F 31F 95 3% - 68% 7 mhos 790 None None 0.42 in 0.0 iph
11/24/2014 01:50 Chemically Wet 29.5F 32F 30F 95 7% - 28% 16 mhos 1818 None None 0.42 in 0.0 iph
11/24/2014 01:46 Chemically Wet 29.5F 32F 31F 95 5% - 44% 12 mhos 1399 None None 0.42 in 0.0 iph
11/24/2014 01:40 Chemically Wet 29.5F 32F 30F 95 6% - 35% 14 mhos 1622 None None 0.42 in 0.0 iph
11/24/2014 01:30 Chemically Wet 29.5F 32F 30F 95 8% - 20% 17 mhos 2000 None None 0.42 in 0.0 iph
11/24/2014 01:20 Chemically Wet 29.5F 32F 31F 95 4% - 58% 9 mhos 1051 None None 0.42 in 0.0 iph
Date/Time
(MST)
Sf
Temp Chem Water Layer Surface Precipitation
Sf Sub Frz Factor Pct Depth IcePct Cond Salin Type Intens Accum Rate
11/24/2014 01:15 Chemically Wet 29.5F 32F 31F 95 4% - 59% 9 mhos 1032 None None 0.42 in 0.0 iph
11/24/2014 01:10 Chemically Wet 29.7F 32F 31F 95 2% - 73% 6 mhos 623 None None 0.42 in 0.0 iph
11/24/2014 01:00 Chemically Wet 29.5F 32F 30F 95 5% - 43% 13 mhos 1418 None None 0.42 in 0.0 iph
11/24/2014 00:50 Chemically Wet 29.5F 32F 30F 95 7% - 28% 16 mhos 1816 None None 0.42 in 0.0 iph
11/24/2014 00:45 Chemically Wet 29.7F 32F 31F 95 4% - 60% 8 mhos 951 None None 0.42 in 0.0 iph
11/24/2014 00:40 Chemically Wet 29.3F 32F 30F 95 8% - 21% 18 mhos 2117 None None 0.42 in 0.0 iph
11/24/2014 00:30 Chemically Wet 29.3F 32F 31F 95 5% - 55% 11 mhos 1207 None None 0.42 in 0.0 iph
11/24/2014 00:20 Chemically Wet 29.3F 32F 30F 95 6% - 41% 14 mhos 1566 None None 0.42 in 0.0 iph
11/24/2014 00:15 Chemically Wet 29.3F 32F 30F 95 7% - 35% 15 mhos 1723 None None 0.42 in 0.0 iph
11/24/2014 00:10 Chemically Wet 29.3F 32F 29F 95 9% - 15% 20 mhos 2276 None None 0.42 in 0.0 iph
11/24/2014 00:00 Chemically Wet 29.5F 32F 30F 95 7% - 28% 16 mhos 1811 None None 0.42 in 0.0 iph
11/23/2014 23:50 Chemically Wet 29.5F 32F 30F 95 8% - 18% 18 mhos 2046 None None 0.42 in 0.0 iph
11/23/2014 23:45 Chemically Wet 29.5F 32F 31F 95 3% - 68% 7 mhos 815 None None 0.42 in 0.0 iph
11/23/2014 23:40 Chemically Wet 29.3F 32F 31F 95 3% - 75% 6 mhos 673 None None 0.42 in 0.0 iph
11/23/2014 23:30 Chemically Wet 29.3F 32F 31F 95 3% - 69% 7 mhos 815 None None 0.42 in 0.0 iph
Date/Time
(MST)
Sf
Temp Chem Water Layer Surface Precipitation
Sf Sub Frz Factor Pct Depth IcePct Cond Salin Type Intens Accum Rate
11/23/2014 23:20 Chemically Wet 29.1F 32F 30F 95 6% - 49% 13 mhos 1447 None None 0.42 in 0.0 iph
11/23/2014 23:15 Chemically Wet 29.1F 32F 30F 95 7% - 40% 15 mhos 1690 None None 0.42 in 0.0 iph
11/23/2014 23:10 Chemically Wet 29.1F 32F 30F 95 6% - 40% 15 mhos 1683 None None 0.42 in 0.0 iph
11/23/2014 23:00 Chemically Wet 29.1F 32F 31F 95 2% - 79% 5 mhos 604 None None 0.42 in 0.0 iph
11/23/2014 22:50 Chemically Wet 28.9F 32F 31F 95 3% - 76% 6 mhos 712 None None 0.42 in 0.0 iph
11/23/2014 22:45 Chemically Wet 28.8F 32F 30F 95 7% - 40% 16 mhos 1892 None None 0.42 in 0.0 iph
11/23/2014 22:39 Chemically Wet 28.9F 32F 30F 95 7% - 39% 16 mhos 1820 None None 0.42 in 0.0 iph
11/23/2014 22:29 Chemically Wet 28.9F 32F 30F 95 7% - 39% 16 mhos 1825 None None 0.43 in 0.0 iph
11/23/2014 22:19 Chemically Wet 29.1F 32F 30F 95 7% - 39% 15 mhos 1713 None None 0.43 in 0.0 iph
11/23/2014 22:15 Chemically Wet 29.1F 32F 30F 95 7% - 40% 15 mhos 1698 None None 0.43 in 0.0 iph
11/23/2014 22:09 Chemically Wet 29.3F 32F 30F 95 8% - 27% 17 mhos 1955 None None 0.43 in 0.0 iph
11/23/2014 21:59 Chemically Wet 27.7F 32F 28F 95 13% - 18% 29 mhos 3506 None None 0.43 in 0.0 iph
11/23/2014 21:49 Ice Warning 28.0F 32F 32F 95 1% - 93% 2 mhos 265 Unidentified Moderate 0.43 in 0.0 iph
11/23/2014 21:45 Ice Warning 28.8F 32F 32F 95 1% - 94% 2 mhos 195 Unidentified Slight 0.43 in 0.0 iph
11/23/2014 21:39 Ice Warning 30.4F 32F 32F 95 1% - 91% 1 mhos 147 Unidentified Slight 0.43 in 0.0 iph
Date/Time
(MST)
Sf
Temp Chem Water Layer Surface Precipitation
Sf Sub Frz Factor Pct Depth IcePct Cond Salin Type Intens Accum Rate
11/23/2014 21:29 Ice Warning 30.4F 32F 32F 95 1% - 91% 1 mhos 146 Unidentified Moderate 0.43 in 0.0 iph
11/23/2014 21:19 Ice Warning 30.4F 32F 32F 95 1% - 91% 1 mhos 143 None None 0.43 in 0.0 iph
11/23/2014 21:15 Ice Warning 30.4F 32F 32F 95 1% - 91% 1 mhos 143 Snow Slight 0.43 in 0.0 iph
11/23/2014 21:09 Ice Warning 30.4F 32F 32F 95 1% - 91% 1 mhos 139 Snow Slight 0.43 in 0.0 iph
11/23/2014 21:00 Ice Warning 30.4F 32F 32F 95 1% - 91% 1 mhos 141 None None 0.43 in 0.0 iph
11/23/2014 20:59 Ice Warning 30.4F 32F 32F 95 1% - 91% 1 mhos 140 None None 0.43 in 0.0 iph
11/23/2014 20:49 Ice Warning 30.2F 32F 32F 95 1% - 92% 1 mhos 140 None None 0.43 in 0.0 iph
11/23/2014 20:45 Ice Warning 30.4F 32F 32F 95 1% - 91% 1 mhos 143 None None 0.43 in 0.0 iph
11/23/2014 20:39 Ice Warning 30.4F 32F 32F 95 1% - 91% 1 mhos 139 Unidentified Slight 0.43 in 0.0 iph
11/23/2014 20:29 Ice Warning 30.4F 32F 32F 95 1% - 91% 1 mhos 148 Unidentified Moderate 0.43 in 0.0 iph
11/23/2014 20:19 Ice Warning 30.4F 32F 32F 95 1% - 91% 1 mhos 145 Snow Slight 0.43 in 0.0 iph
11/23/2014 20:15 Ice Warning 30.4F 32F 32F 95 1% - 91% 1 mhos 146 Snow Slight 0.43 in 0.0 iph
11/23/2014 20:09 Ice Warning 30.6F 32F 32F 95 1% - 90% 1 mhos 144 Unidentified Moderate 0.43 in 0.0 iph
11/23/2014 19:59 Ice Warning 30.6F 32F 32F 95 0% - 93% 1 mhos 102 Snow Slight 0.44 in 0.0 iph
11/23/2014 19:49 Ice Warning 30.4F 32F 32F 95 0% - 94% 1 mhos 100 Snow Slight 0.44 in 0.0 iph
Date/Time
(MST)
Sf
Temp Chem Water Layer Surface Precipitation
Sf Sub Frz Factor Pct Depth IcePct Cond Salin Type Intens Accum Rate
11/23/2014 19:45 Ice Warning 30.6F 32F 32F 95 0% - 92% 1 mhos 114 Snow Slight 0.44 in 0.0 iph
11/23/2014 19:39 Ice Warning 30.4F 32F 32F 95 0% - 93% 1 mhos 115 Snow Slight 0.44 in 0.0 iph
11/23/2014 19:29 Ice Warning 30.4F 32F 32F 95 0% - 92% 1 mhos 121 Snow Slight 0.44 in 0.0 iph
11/23/2014 19:19 Ice Warning 30.4F 32F 32F 95 0% - 92% 1 mhos 121 Snow Slight 0.44 in 0.0 iph
11/23/2014 19:15 Ice Warning 30.4F 32F 32F 95 0% - 92% 1 mhos 122 Snow Slight 0.44 in 0.0 iph
11/23/2014 19:08 Ice Warning 30.4F 32F 32F 95 0% - 92% 1 mhos 122 Snow Slight 0.43 in 0.0 iph
11/23/2014 18:58 Ice Warning 30.4F 32F 32F 95 0% - 92% 1 mhos 121 Snow Slight 0.43 in 0.0 iph
11/23/2014 18:48 Ice Warning 30.4F 32F 32F 95 0% - 92% 1 mhos 118 Snow Slight 0.45 in 0.1 iph
11/23/2014 18:46 Ice Warning 30.4F 32F 32F 95 0% - 92% 1 mhos 118 Snow Slight 0.47 in 0.0 iph
11/23/2014 18:38 Ice Warning 30.2F 32F 32F 95 0% - 93% 1 mhos 115 Snow Slight 0.46 in 0.0 iph
11/23/2014 18:28 Ice Warning 30.2F 32F 32F 95 0% - 93% 1 mhos 124 Snow Slight 0.47 in 0.0 iph
11/23/2014 18:18 Ice Warning 30.2F 32F 32F 95 0% - 93% 1 mhos 118 Snow Slight 0.47 in 0.0 iph
11/23/2014 18:15 Ice Warning 30.2F 32F 32F 95 0% - 93% 1 mhos 117 Snow Slight 0.48 in 0.0 iph
11/23/2014 18:08 Ice Warning 30.0F 32F 32F 95 1% - 88% 2 mhos 218 Snow Slight 0.47 in 0.0 iph
11/23/2014 17:58 Ice Warning 30.0F 32F 32F 95 1% - 89% 2 mhos 208 Unidentified Moderate 0.47 in 0.0 iph
Date/Time
(MST)
Sf
Temp Chem Water Layer Surface Precipitation
Sf Sub Frz Factor Pct Depth IcePct Cond Salin Type Intens Accum Rate
11/23/2014 17:48 Ice Warning 29.8F 32F 32F 95 1% - 91% 2 mhos 190 Unidentified Slight 0.47 in 0.0 iph
11/23/2014 17:46 Ice Warning 29.8F 32F 32F 95 1% - 91% 2 mhos 192 Unidentified Slight 0.47 in 0.0 iph
11/23/2014 17:38 Ice Warning 30.2F 32F 32F 95 1% - 92% 1 mhos 140 Unidentified Slight 0.48 in 0.0 iph
11/23/2014 17:28 Ice Warning 30.2F 32F 32F 95 0% - 93% 1 mhos 128 None None 0.48 in 0.0 iph
11/23/2014 17:18 Ice Warning 30.6F 32F 32F 95 0% - 95% 1 mhos 76 Unidentified Slight 0.48 in 0.0 iph
11/23/2014 17:16 Ice Warning 30.7F 32F 32F 95 0% - 93% 1 mhos 85 Unidentified Slight 0.48 in 0.0 iph
11/23/2014 17:08 Ice Warning 31.1F 32F 32F 95 0% - 91% 1 mhos 82 Unidentified Slight 0.48 in 0.0 iph
11/23/2014 17:00 Ice Warning 31.1F 32F 32F 95 0% - 96% 0 mhos 33 Unidentified Slight 0.48 in 0.0 iph
11/23/2014 16:58 Ice Warning 31.1F 32F 32F 95 0% - 97% 0 mhos 27 Unidentified Moderate 0.48 in 0.0 iph
11/23/2014 16:48 Ice Warning 31.1F 32F 32F 95 0% - 98% 0 mhos 16 Snow Slight 0.48 in 0.0 iph
11/23/2014 16:45 Ice Warning 31.1F 32F 32F 95 0% - 98% 0 mhos 14 Snow Slight 0.48 in 0.0 iph
11/23/2014 16:38 Ice Warning 31.1F 32F 32F 95 0% - 99% 0 mhos 9 Snow Slight 0.48 in 0.0 iph
11/23/2014 16:30 Ice Warning 31.1F 32F 32F 95 0% - 99% 0 mhos 9 Snow Moderate 0.47 in 0.2 iph
11/23/2014 16:28 Ice Warning 31.1F 32F 32F 95 0% - 99% 0 mhos 10 Snow Heavy 0.45 in 0.6 iph
11/23/2014 16:18 Chemically Wet 31.1F 32F 32F 95 1% - 80% 1 mhos 160 Snow Moderate 0.37 in 0.3 iph
Date/Time
(MST)
Sf
Temp Chem Water Layer Surface Precipitation
Sf Sub Frz Factor Pct Depth IcePct Cond Salin Type Intens Accum Rate
11/23/2014 16:15 Chemically Wet 31.1F 32F 32F 95 1% - 80% 1 mhos 159 Snow Slight 0.36 in 0.1 iph
11/23/2014 16:08 Chemically Wet 31.1F 32F 32F 95 1% - 79% 2 mhos 165 Snow Heavy 0.35 in 0.3 iph
11/23/2014 16:00 Chemically Wet 31.3F 32F 32F 95 0% - 81% 1 mhos 124 Snow Slight 0.32 in 0.1 iph
11/23/2014 15:58 Chemically Wet 31.3F 32F 32F 95 0% - 81% 1 mhos 125 Snow Moderate 0.32 in 0.1 iph
11/23/2014 15:47 Chemically Wet 31.3F 32F 31F 95 4% 0.00 in 0% 8 mhos 911 Snow Moderate 0.31 in 0.1 iph
11/23/2014 15:45 Chemically Wet 31.3F 32F 32F 95 1% - 79% 1 mhos 139 Snow Slight 0.30 in 0.1 iph
11/23/2014 15:37 Chemically Wet 31.3F 32F 32F 95 1% - 68% 2 mhos 210 Snow Slight 0.29 in 0.1 iph
11/23/2014 15:30 Ice Warning 31.3F 32F 32F 95 0% - 88% 1 mhos 75 Snow Slight 0.28 in 0.1 iph
11/23/2014 15:27 Chemically Wet 31.3F 32F 32F 95 1% - 56% 3 mhos 283 Snow Slight 0.28 in 0.1 iph
11/23/2014 15:17 Chemically Wet 31.3F 32F 32F 95 1% - 66% 2 mhos 220 Snow Slight 0.27 in 0.0 iph
11/23/2014 15:15 Chemically Wet 31.1F 32F 32F 95 1% - 74% 2 mhos 205 Snow Slight 0.27 in 0.0 iph
11/23/2014 15:07 Chemically Wet 31.3F 32F 32F 95 1% - 74% 2 mhos 171 Snow Slight 0.26 in 0.0 iph
11/23/2014 14:57 Chemically Wet 31.3F 32F 32F 95 1% - 58% 2 mhos 270 Snow Slight 0.25 in 0.1 iph
11/23/2014 14:47 Chemically Wet 31.3F 32F 32F 95 1% - 57% 3 mhos 281 Snow Moderate 0.24 in 0.1 iph
11/23/2014 14:45 Chemically Wet 31.3F 32F 32F 95 1% - 57% 3 mhos 279 Snow Slight 0.24 in 0.1 iph
Date/Time
(MST)
Sf
Temp Chem Water Layer Surface Precipitation
Sf Sub Frz Factor Pct Depth IcePct Cond Salin Type Intens Accum Rate
11/23/2014 14:37 Chemically Wet 31.3F 32F 32F 95 1% - 77% 1 mhos 147 Snow Slight 0.22 in 0.1 iph
11/23/2014 14:27 Ice Warning 31.3F 32F 32F 95 0% - 93% 0 mhos 46 Snow Slight 0.21 in 0.0 iph
Change End Date:
Copyright © 1998-2005 Surface Systems, Inc.
All Rights Reserved
Send comments about the data to:
SCAN Web ® is a registered trademark of Surface Systems, Inc.
SCAN Web Version 5.6